Time;durP1;ratioP1;P1;durP2;ratioP2;P2;SDS_P1;SDS_P2;PMS_P1;PMS_P2;Temp;Humidity;BMP_temperature;BMP_pressure;BME280_temperature;BME280_humidity;BME280_pressure;Samples;Min_cycle;Max_cycle;Signal;HPM_P1;HPM_P2
2024/03/16 00:02:00;;;;;;;2.37;0.70;;;;;;;14.06;59.31;97315.59;5037612;28;20457;-68
2024/03/16 00:04:26;;;;;;;1.83;0.80;;;;;;;14.07;59.19;97311.97;5031517;28;20186;-71
2024/03/16 00:06:51;;;;;;;1.10;0.90;;;;;;;14.09;59.10;97315.25;5039955;28;20203;-70
2024/03/16 00:09:18;;;;;;;1.53;0.80;;;;;;;13.95;59.14;97314.13;5027065;28;20580;-70
2024/03/16 00:11:44;;;;;;;1.60;0.70;;;;;;;13.95;59.15;97317.63;5040533;28;20967;-69
2024/03/16 00:14:09;;;;;;;3.43;0.80;;;;;;;13.96;58.84;97315.78;5031648;28;20460;-72
2024/03/16 00:16:34;;;;;;;2.60;0.87;;;;;;;13.89;59.24;97312.19;5038430;28;20672;-70
2024/03/16 00:19:00;;;;;;;1.00;0.80;;;;;;;13.82;58.86;97319.97;5039786;28;20291;-72
2024/03/16 00:21:26;;;;;;;5.13;0.73;;;;;;;13.98;58.74;97319.91;5033297;28;20211;-71
2024/03/16 00:23:53;;;;;;;2.20;0.70;;;;;;;13.90;59.04;97325.19;5040624;28;20187;-69
2024/03/16 00:26:18;;;;;;;0.80;0.50;;;;;;;13.97;58.81;97325.34;5033755;28;20212;-71
2024/03/16 00:28:43;;;;;;;1.80;0.70;;;;;;;13.93;58.80;97318.75;5037468;28;20551;-71
2024/03/16 00:31:09;;;;;;;1.20;0.70;;;;;;;13.97;58.68;97310.38;5031932;28;20229;-71
2024/03/16 00:33:35;;;;;;;1.77;0.70;;;;;;;13.95;58.87;97319.41;5035128;28;20210;-70
2024/03/16 00:36:00;;;;;;;1.20;0.60;;;;;;;13.96;58.87;97321.88;5039348;28;20640;-70
2024/03/16 00:38:26;;;;;;;1.60;0.63;;;;;;;13.84;58.57;97315.34;5033911;28;20322;-71
2024/03/16 00:40:55;;;;;;;1.30;0.50;;;;;;;13.71;59.04;97315.06;5036727;28;20214;-70
2024/03/16 00:43:20;;;;;;;1.30;0.70;;;;;;;13.79;58.76;97320.28;5030520;28;20266;-70
2024/03/16 00:45:45;;;;;;;0.90;0.60;;;;;;;13.86;58.47;97313.34;5031179;28;20557;-71
2024/03/16 00:48:12;;;;;;;1.00;0.83;;;;;;;13.80;58.47;97309.56;5042276;28;20190;-70
2024/03/16 00:50:38;;;;;;;1.87;0.73;;;;;;;13.72;58.39;97306.19;5037042;28;20228;-69
2024/03/16 00:53:03;;;;;;;0.83;0.60;;;;;;;13.70;58.64;97310.78;5043047;28;20453;-68
2024/03/16 00:55:29;;;;;;;2.37;0.60;;;;;;;13.77;58.46;97325.75;5033601;28;20421;-70
2024/03/16 00:57:54;;;;;;;1.20;0.70;;;;;;;13.83;58.16;97332.16;5035874;28;20768;-70
2024/03/16 01:00:20;;;;;;;3.70;0.90;;;;;;;13.82;58.38;97322.59;5040504;28;20187;-69
2024/03/16 01:02:45;;;;;;;1.97;0.70;;;;;;;13.81;58.64;97336.75;5030719;28;20199;-69
2024/03/16 01:05:11;;;;;;;4.03;0.60;;;;;;;13.76;58.58;97339.06;5030480;28;20216;-70
2024/03/16 01:07:37;;;;;;;1.27;0.80;;;;;;;13.80;58.51;97329.84;5027273;28;20179;-70
2024/03/16 01:10:03;;;;;;;1.13;0.80;;;;;;;13.82;58.87;97343.66;5035191;28;20433;-71
2024/03/16 01:12:28;;;;;;;0.87;0.60;;;;;;;13.81;58.89;97326.22;5030120;28;20671;-71
2024/03/16 01:14:54;;;;;;;1.33;0.60;;;;;;;13.76;58.76;97333.81;5040863;28;20684;-71
2024/03/16 01:17:20;;;;;;;1.00;0.70;;;;;;;13.80;58.76;97319.31;5039632;28;20668;-71
2024/03/16 01:19:46;;;;;;;2.70;0.73;;;;;;;13.79;58.51;97322.94;5041545;28;20202;-71
2024/03/16 01:22:11;;;;;;;1.23;0.80;;;;;;;13.79;58.33;97323.78;5034232;28;20457;-71
2024/03/16 01:24:37;;;;;;;1.63;0.60;;;;;;;13.76;58.85;97318.00;5044675;28;20187;-71
2024/03/16 01:27:02;;;;;;;1.57;0.50;;;;;;;13.72;58.73;97301.72;5030147;28;20211;-70
2024/03/16 01:29:28;;;;;;;1.47;0.70;;;;;;;13.62;59.36;97301.09;5029967;28;20194;-71
2024/03/16 01:31:53;;;;;;;0.80;0.60;;;;;;;13.67;59.03;97310.13;5030289;28;20210;-69
2024/03/16 01:34:19;;;;;;;1.27;0.70;;;;;;;13.54;59.06;97312.47;5035726;28;20233;-71
2024/03/16 01:36:44;;;;;;;3.73;0.80;;;;;;;13.71;58.57;97309.81;5020774;28;20184;-69
2024/03/16 01:39:12;;;;;;;2.00;0.70;;;;;;;13.57;58.55;97308.66;5032682;28;20278;-72
2024/03/16 01:41:38;;;;;;;1.73;0.63;;;;;;;13.54;59.13;97309.84;5033980;28;20830;-71
2024/03/16 01:44:11;;;;;;;0.90;0.50;;;;;;;13.40;59.11;97316.63;5027433;28;20484;-71
2024/03/16 01:46:39;;;;;;;2.93;0.80;;;;;;;13.44;59.39;97314.47;5033882;28;20560;-70
2024/03/16 01:49:07;;;;;;;4.17;0.77;;;;;;;13.48;59.48;97305.25;5030740;28;20438;-71
2024/03/16 01:51:33;;;;;;;0.90;0.57;;;;;;;13.53;58.98;97313.47;5045537;28;20445;-70
2024/03/16 01:53:58;;;;;;;1.60;0.60;;;;;;;13.46;59.20;97309.88;5031279;28;20449;-71
2024/03/16 01:56:24;;;;;;;1.60;0.70;;;;;;;13.35;59.59;97311.00;5030129;28;20263;-70
2024/03/16 01:58:49;;;;;;;1.53;0.70;;;;;;;13.43;59.24;97308.38;5029544;28;20198;-70
2024/03/16 02:01:15;;;;;;;1.40;0.60;;;;;;;13.41;59.74;97301.63;5025377;28;20244;-72
2024/03/16 02:03:40;;;;;;;1.37;0.70;;;;;;;13.37;59.73;97299.31;5033588;28;20190;-71
2024/03/16 02:06:06;;;;;;;0.87;0.60;;;;;;;13.26;59.81;97302.28;5021524;28;20573;-70
2024/03/16 02:08:32;;;;;;;1.47;0.70;;;;;;;13.30;60.25;97300.97;5035832;28;20178;-70
2024/03/16 02:10:57;;;;;;;0.80;0.50;;;;;;;13.40;59.90;97313.16;5037919;28;20788;-72
2024/03/16 02:13:23;;;;;;;1.27;0.60;;;;;;;13.30;59.67;97310.66;5027950;28;20211;-71
2024/03/16 02:15:48;;;;;;;1.27;0.70;;;;;;;13.42;59.40;97305.91;5029567;28;20186;-71
2024/03/16 02:18:14;;;;;;;1.07;0.70;;;;;;;13.50;59.14;97301.47;5029515;28;20303;-71
2024/03/16 02:20:39;;;;;;;2.40;0.70;;;;;;;13.45;59.71;97316.94;5032658;28;20218;-71
2024/03/16 02:23:05;;;;;;;1.27;0.70;;;;;;;13.38;59.33;97310.66;5047482;28;20206;-72
2024/03/16 02:25:30;;;;;;;1.30;0.77;;;;;;;13.31;59.67;97310.53;5037739;28;20204;-71
2024/03/16 02:27:56;;;;;;;1.83;0.70;;;;;;;13.29;59.86;97303.78;5038617;28;20198;-70
2024/03/16 02:30:21;;;;;;;1.20;0.70;;;;;;;13.34;59.86;97310.19;5042888;28;20214;-72
2024/03/16 02:32:47;;;;;;;0.90;0.57;;;;;;;13.36;59.32;97312.66;5044400;28;20210;-70
2024/03/16 02:35:12;;;;;;;1.40;0.70;;;;;;;13.37;59.66;97307.19;5041615;28;20201;-72
2024/03/16 02:37:38;;;;;;;1.93;0.63;;;;;;;13.33;60.01;97312.97;5044316;28;20210;-71
2024/03/16 02:40:04;;;;;;;2.80;0.70;;;;;;;13.29;59.95;97309.84;5037602;28;20192;-71
2024/03/16 02:42:30;;;;;;;0.90;0.63;;;;;;;13.36;59.53;97308.19;5037024;28;20199;-72
2024/03/16 02:44:55;;;;;;;1.63;0.73;;;;;;;13.36;59.71;97318.72;5029645;28;20238;-72
2024/03/16 02:47:20;;;;;;;1.63;0.70;;;;;;;13.11;60.43;97303.94;5016493;28;20184;-71
2024/03/16 02:49:49;;;;;;;1.57;0.90;;;;;;;13.12;60.37;97301.16;5043208;28;20183;-70
2024/03/16 02:52:14;;;;;;;1.87;0.70;;;;;;;13.26;59.70;97302.28;5032550;28;20234;-70
2024/03/16 02:54:40;;;;;;;1.00;0.80;;;;;;;13.13;59.97;97307.22;5033675;28;20577;-73
2024/03/16 02:57:05;;;;;;;1.03;0.60;;;;;;;13.16;60.15;97306.91;5019815;28;20625;-73
2024/03/16 02:59:31;;;;;;;1.47;0.80;;;;;;;13.27;60.04;97306.56;5031688;28;20183;-70
2024/03/16 03:01:57;;;;;;;1.30;0.70;;;;;;;13.15;59.97;97300.00;5038261;28;20231;-71
2024/03/16 03:04:23;;;;;;;1.00;0.70;;;;;;;13.25;59.78;97294.56;5028304;28;20179;-71
2024/03/16 03:06:49;;;;;;;1.17;0.60;;;;;;;13.29;59.75;97291.44;5044000;28;20458;-73
2024/03/16 03:09:14;;;;;;;1.20;0.60;;;;;;;13.30;59.68;97292.25;5032800;28;20184;-70
2024/03/16 03:11:40;;;;;;;1.00;0.60;;;;;;;13.17;60.01;97296.22;5033911;28;20195;-71
2024/03/16 03:14:08;;;;;;;1.50;0.70;;;;;;;13.20;59.72;97314.31;5027494;28;20176;-72
2024/03/16 03:16:34;;;;;;;0.80;0.50;;;;;;;13.18;60.05;97310.19;5032285;28;20215;-71
2024/03/16 03:18:59;;;;;;;1.00;0.60;;;;;;;13.24;59.91;97309.53;5035122;28;20461;-70
2024/03/16 03:21:25;;;;;;;1.10;0.60;;;;;;;13.29;59.85;97306.41;5028795;28;20207;-71
2024/03/16 03:23:50;;;;;;;0.87;0.67;;;;;;;13.26;59.75;97302.28;5034138;28;20213;-72
2024/03/16 03:26:16;;;;;;;1.30;0.67;;;;;;;13.29;59.53;97312.50;5033869;28;20226;-71
2024/03/16 03:28:42;;;;;;;1.00;0.60;;;;;;;13.14;60.44;97314.16;5035561;28;20206;-70
2024/03/16 03:31:10;;;;;;;0.80;0.50;;;;;;;13.13;60.49;97301.97;5033039;28;20434;-70
2024/03/16 03:33:35;;;;;;;1.20;0.97;;;;;;;13.28;59.83;97300.31;5028170;28;20642;-70
2024/03/16 03:36:02;;;;;;;1.33;0.70;;;;;;;13.28;59.92;97315.31;5034315;28;20425;-71
2024/03/16 03:38:28;;;;;;;0.90;0.50;;;;;;;13.12;60.13;97314.31;5030800;28;20183;-69
2024/03/16 03:40:53;;;;;;;1.20;0.70;;;;;;;13.18;60.29;97313.63;5029126;28;20517;-69
2024/03/16 03:43:21;;;;;;;1.20;0.70;;;;;;;13.21;60.09;97315.13;5035669;28;20432;-70
2024/03/16 03:45:50;;;;;;;1.27;0.70;;;;;;;13.25;60.02;97319.06;5008686;28;20254;-69
2024/03/16 03:48:25;;;;;;;1.37;0.73;;;;;;;13.27;60.58;97317.09;5028099;28;20449;-70
2024/03/16 03:50:51;;;;;;;1.57;0.70;;;;;;;13.30;60.49;97322.03;5027554;28;20426;-69
2024/03/16 03:53:18;;;;;;;1.47;0.67;;;;;;;13.38;60.43;97321.19;5034243;28;20422;-70
2024/03/16 03:55:44;;;;;;;1.70;0.83;;;;;;;13.39;60.55;97317.59;5043689;28;20665;-71
2024/03/16 03:58:09;;;;;;;2.23;0.80;;;;;;;13.35;60.54;97327.63;5039687;28;20448;-69
2024/03/16 04:00:35;;;;;;;1.40;0.70;;;;;;;13.34;60.75;97327.78;5037078;28;20432;-72
2024/03/16 04:03:01;;;;;;;1.00;0.70;;;;;;;13.32;60.89;97333.22;5044943;28;20234;-73
2024/03/16 04:05:26;;;;;;;2.63;0.90;;;;;;;13.35;60.89;97329.41;5040747;28;20211;-68
2024/03/16 04:07:53;;;;;;;1.30;0.77;;;;;;;13.41;60.61;97335.84;5036149;28;20290;-71
2024/03/16 04:10:18;;;;;;;1.37;0.73;;;;;;;13.41;60.84;97338.50;5048240;28;20192;-71
2024/03/16 04:12:45;;;;;;;2.90;0.77;;;;;;;13.45;60.44;97342.44;5046103;28;20517;-71
2024/03/16 04:15:10;;;;;;;1.10;0.80;;;;;;;13.55;60.39;97343.09;5039210;28;20564;-70
2024/03/16 04:17:36;;;;;;;5.80;0.80;;;;;;;13.45;60.58;97345.09;5040547;28;20439;-72
2024/03/16 04:20:01;;;;;;;4.60;1.07;;;;;;;13.51;60.37;97347.03;5051241;28;20191;-73
2024/03/16 04:22:27;;;;;;;4.10;0.90;;;;;;;13.45;60.97;97348.53;5060465;28;20187;-70
2024/03/16 04:24:52;;;;;;;1.43;0.80;;;;;;;13.53;60.84;97352.94;5059342;28;20248;-72
2024/03/16 04:27:18;;;;;;;1.00;0.80;;;;;;;13.61;60.14;97363.47;5054046;28;20241;-70
2024/03/16 04:29:44;;;;;;;3.83;1.00;;;;;;;13.58;60.18;97369.09;5041476;28;20191;-71
2024/03/16 04:32:09;;;;;;;3.27;0.90;;;;;;;13.71;60.33;97373.00;5033452;28;20791;-70
2024/03/16 04:34:36;;;;;;;1.00;0.70;;;;;;;13.78;60.19;97389.78;5031563;28;20175;-71
2024/03/16 04:37:02;;;;;;;4.70;1.10;;;;;;;13.76;60.10;97402.28;5036175;28;20229;-71
2024/03/16 04:39:27;;;;;;;2.00;0.90;;;;;;;13.75;60.34;97405.91;5033568;28;20429;-71
2024/03/16 04:41:53;;;;;;;2.90;0.90;;;;;;;13.71;61.29;97396.72;5040556;28;20538;-70
2024/03/16 04:44:18;;;;;;;1.97;0.97;;;;;;;13.72;61.14;97398.38;5027076;28;20208;-72
2024/03/16 04:46:44;;;;;;;1.73;1.20;;;;;;;13.59;61.55;97389.16;5044593;28;20703;-71
2024/03/16 04:49:09;;;;;;;2.07;1.27;;;;;;;13.62;61.70;97391.44;5045632;28;20179;-71
2024/03/16 04:51:35;;;;;;;3.17;1.00;;;;;;;13.61;61.43;97381.88;5038246;28;20265;-70
2024/03/16 04:54:01;;;;;;;2.83;1.03;;;;;;;13.69;61.54;97385.50;5046015;28;20194;-73
2024/03/16 04:56:29;;;;;;;2.63;0.93;;;;;;;13.71;61.56;97391.44;5039286;28;20461;-71
2024/03/16 04:58:55;;;;;;;2.07;0.63;;;;;;;13.68;61.60;97384.69;5039581;28;20201;-71
2024/03/16 05:01:21;;;;;;;3.67;0.80;;;;;;;13.69;61.96;97380.25;5022051;28;20459;-70
2024/03/16 05:03:46;;;;;;;3.03;0.90;;;;;;;13.73;61.87;97368.41;5030079;28;20554;-70
2024/03/16 05:06:12;;;;;;;4.80;1.00;;;;;;;13.61;62.54;97366.09;5030223;28;20602;-71
2024/03/16 05:08:38;;;;;;;2.20;0.90;;;;;;;13.63;62.35;97365.94;5029756;28;20190;-70
2024/03/16 05:11:03;;;;;;;6.10;1.00;;;;;;;13.59;62.82;97367.25;5033074;28;20190;-72
2024/03/16 05:13:29;;;;;;;3.00;1.00;;;;;;;13.55;63.06;97363.31;5029950;28;20187;-70
2024/03/16 05:15:55;;;;;;;1.50;0.90;;;;;;;13.55;62.91;97366.78;5043868;28;20833;-69
2024/03/16 05:18:20;;;;;;;2.60;0.90;;;;;;;13.48;62.82;97368.44;5026572;28;20183;-69
2024/03/16 05:20:46;;;;;;;1.73;1.07;;;;;;;13.48;62.93;97373.72;5031706;28;20179;-70
2024/03/16 05:23:12;;;;;;;1.93;1.00;;;;;;;13.48;62.83;97382.41;5042577;28;20208;-69
2024/03/16 05:25:37;;;;;;;1.30;0.80;;;;;;;13.52;62.88;97380.28;5045433;28;21044;-71
2024/03/16 05:28:03;;;;;;;3.63;1.30;;;;;;;13.60;62.99;97372.38;5029647;28;20447;-72
2024/03/16 05:30:29;;;;;;;1.70;1.17;;;;;;;13.62;62.78;97385.38;5022947;28;20181;-71
2024/03/16 05:32:55;;;;;;;6.30;1.37;;;;;;;13.62;62.72;97380.91;5037546;28;20545;-69
2024/03/16 05:35:21;;;;;;;3.13;1.17;;;;;;;13.55;62.89;97379.94;5037901;28;20426;-70
2024/03/16 05:37:46;;;;;;;3.90;1.17;;;;;;;13.60;62.84;97380.28;5039000;28;20270;-69
2024/03/16 05:40:12;;;;;;;2.80;0.93;;;;;;;13.62;62.76;97388.00;5042723;28;20517;-69
2024/03/16 05:42:38;;;;;;;1.57;0.80;;;;;;;13.62;62.86;97388.81;5045291;28;20241;-71
2024/03/16 05:45:05;;;;;;;2.13;0.90;;;;;;;13.59;63.04;97402.31;5038102;28;20251;-73
2024/03/16 05:47:30;;;;;;;1.10;0.90;;;;;;;13.66;62.77;97403.28;5031391;28;20418;-70
2024/03/16 05:49:56;;;;;;;2.53;1.00;;;;;;;13.71;62.68;97409.88;5044782;28;21009;-69
2024/03/16 05:52:21;;;;;;;2.13;1.10;;;;;;;13.71;62.85;97400.16;5029369;28;20235;-71
2024/03/16 05:54:47;;;;;;;4.70;1.00;;;;;;;13.68;62.91;97411.00;5041388;28;20191;-71
2024/03/16 05:57:12;;;;;;;3.47;1.00;;;;;;;13.69;62.59;97407.41;5034941;28;20184;-70
2024/03/16 05:59:38;;;;;;;2.60;1.30;;;;;;;13.66;63.08;97408.56;5029244;28;20180;-70
2024/03/16 06:02:03;;;;;;;2.40;1.10;;;;;;;13.69;62.75;97412.66;5031917;28;20928;-71
2024/03/16 06:04:29;;;;;;;4.30;1.10;;;;;;;13.73;62.75;97413.19;5029452;28;20180;-71
2024/03/16 06:06:55;;;;;;;2.00;1.00;;;;;;;13.77;62.85;97419.72;5029939;28;20646;-70
2024/03/16 06:09:20;;;;;;;1.77;0.87;;;;;;;13.84;61.96;97420.72;5036693;28;20229;-70
2024/03/16 06:11:46;;;;;;;1.50;1.10;;;;;;;13.86;61.90;97417.91;5036516;28;20979;-71
2024/03/16 06:14:11;;;;;;;1.50;0.90;;;;;;;13.90;61.89;97429.75;5028523;28;20349;-71
2024/03/16 06:16:40;;;;;;;1.00;0.80;;;;;;;13.91;61.88;97431.41;5030001;28;20198;-71
2024/03/16 06:19:06;;;;;;;3.07;0.80;;;;;;;13.92;61.73;97428.59;5021305;28;20179;-70
2024/03/16 06:21:32;;;;;;;1.00;0.80;;;;;;;13.92;61.98;97433.88;5029041;28;20508;-71
2024/03/16 06:23:58;;;;;;;1.77;0.83;;;;;;;13.92;61.78;97436.50;5040746;28;20258;-72
2024/03/16 06:26:23;;;;;;;1.53;0.80;;;;;;;13.97;61.45;97433.38;5036906;28;20222;-70
2024/03/16 06:28:56;;;;;;;2.53;0.93;;;;;;;14.00;61.34;97438.31;5029671;28;20426;-70
2024/03/16 06:32:04;;;;;;;2.80;1.20;;;;;;;14.05;61.16;97437.78;5034104;28;20206;-71
2024/03/16 06:34:13;;;;;;;1.50;0.77;;;;;;;13.98;60.85;97443.75;5032405;28;20444;-70
2024/03/16 06:36:39;;;;;;;1.97;1.03;;;;;;;13.93;61.03;97448.69;5032581;28;20880;-71
2024/03/16 06:39:10;;;;;;;1.47;0.70;;;;;;;13.95;60.74;97449.34;5039801;28;20179;-70
2024/03/16 06:41:36;;;;;;;1.60;0.80;;;;;;;13.96;60.73;97460.69;5032522;28;20752;-71
2024/03/16 06:44:02;;;;;;;1.83;0.80;;;;;;;14.01;61.29;97466.31;5038224;28;20429;-71
2024/03/16 06:46:28;;;;;;;1.43;0.70;;;;;;;14.09;61.24;97470.72;5034300;28;20458;-69
2024/03/16 06:48:53;;;;;;;1.87;0.70;;;;;;;14.15;60.99;97470.03;5039496;28;21091;-71
2024/03/16 06:51:19;;;;;;;1.63;0.60;;;;;;;14.14;61.17;97473.66;5034872;28;20574;-70
2024/03/16 06:53:49;;;;;;;1.10;0.70;;;;;;;14.17;61.38;97477.81;5028470;28;20229;-71
2024/03/16 06:56:15;;;;;;;1.53;0.60;;;;;;;14.17;61.50;97480.44;5028431;28;20203;-70
2024/03/16 06:58:43;;;;;;;2.13;0.63;;;;;;;14.18;61.33;97479.41;5036676;28;21254;-72
2024/03/16 07:01:12;;;;;;;1.67;0.70;;;;;;;14.18;61.20;97482.06;5030854;28;20179;-69
2024/03/16 07:03:37;;;;;;;1.00;0.50;;;;;;;14.18;60.83;97480.25;5036162;28;20441;-69
2024/03/16 07:06:03;;;;;;;1.27;0.63;;;;;;;14.16;61.25;97481.44;5039705;28;20472;-70
2024/03/16 07:08:29;;;;;;;2.03;0.77;;;;;;;14.13;61.15;97483.41;5035318;28;20180;-70
2024/03/16 07:10:56;;;;;;;2.23;0.70;;;;;;;14.20;61.18;97493.25;5029249;28;20473;-70
2024/03/16 07:13:22;;;;;;;2.30;0.70;;;;;;;14.21;61.14;97495.75;5034869;28;20203;-70
2024/03/16 07:15:47;;;;;;;1.93;0.97;;;;;;;14.27;61.33;97505.59;5032450;28;20421;-71
2024/03/16 07:18:13;;;;;;;1.87;0.73;;;;;;;14.28;61.19;97507.25;5031991;28;20229;-71
2024/03/16 07:20:38;;;;;;;2.10;1.13;;;;;;;14.31;61.46;97510.53;5031250;28;20187;-69
2024/03/16 07:23:04;;;;;;;2.70;1.00;;;;;;;14.38;61.64;97517.63;5031563;28;20211;-71
2024/03/16 07:25:30;;;;;;;1.70;0.70;;;;;;;14.39;61.70;97519.25;5034609;28;20297;-71
2024/03/16 07:27:55;;;;;;;1.43;0.83;;;;;;;14.46;62.17;97524.69;5030898;28;20187;-72
2024/03/16 07:30:21;;;;;;;1.87;0.80;;;;;;;14.50;62.45;97525.16;5039538;28;20182;-70
2024/03/16 07:32:47;;;;;;;1.67;1.20;;;;;;;14.51;62.57;97532.09;5039667;28;20230;-71
2024/03/16 07:35:13;;;;;;;1.43;0.93;;;;;;;14.52;62.68;97534.53;5030059;28;20195;-70
2024/03/16 07:37:39;;;;;;;1.20;1.00;;;;;;;14.51;62.88;97546.06;5037981;28;20448;-69
2024/03/16 07:40:13;;;;;;;2.70;1.57;;;;;;;14.55;62.93;97547.41;5030766;28;20680;-70
2024/03/16 07:42:40;;;;;;;1.90;1.07;;;;;;;14.53;63.00;97552.00;5031476;28;20446;-70
2024/03/16 07:45:06;;;;;;;1.90;1.20;;;;;;;14.55;63.39;97550.03;5038911;28;20431;-70
2024/03/16 07:47:32;;;;;;;4.17;1.60;;;;;;;14.61;63.61;97551.16;5037095;28;20520;-70
2024/03/16 07:49:57;;;;;;;1.87;1.40;;;;;;;14.65;63.67;97554.28;5045034;28;20436;-69
2024/03/16 07:52:23;;;;;;;5.83;1.83;;;;;;;14.72;63.86;97560.56;5047809;28;20203;-70
2024/03/16 07:54:48;;;;;;;9.13;1.60;;;;;;;14.74;63.75;97564.69;5037622;28;20190;-70
2024/03/16 07:57:14;;;;;;;1.90;1.30;;;;;;;14.75;63.54;97560.22;5035177;28;20180;-71
2024/03/16 07:59:39;;;;;;;2.30;1.27;;;;;;;14.74;63.76;97569.16;5045921;28;20190;-72
2024/03/16 08:02:06;;;;;;;1.53;1.10;;;;;;;14.76;63.89;97567.13;5041641;28;20208;-70
2024/03/16 08:04:33;;;;;;;3.30;1.40;;;;;;;14.77;63.83;97570.63;5036988;28;20184;-71
2024/03/16 08:06:59;;;;;;;1.90;1.10;;;;;;;14.79;63.68;97587.09;5043028;28;20576;-70
2024/03/16 08:09:24;;;;;;;1.67;1.00;;;;;;;14.81;63.92;97572.75;5035165;28;20815;-70
2024/03/16 08:11:51;;;;;;;2.70;1.23;;;;;;;14.86;63.82;97582.78;5034912;28;20446;-70
2024/03/16 08:14:16;;;;;;;2.33;1.20;;;;;;;14.74;63.33;97572.59;5031085;28;20175;-70
2024/03/16 08:16:42;;;;;;;1.80;1.30;;;;;;;14.75;63.34;97581.31;5042454;28;20851;-70
2024/03/16 08:19:07;;;;;;;3.07;1.43;;;;;;;14.71;63.15;97590.59;5033139;28;20190;-71
2024/03/16 08:21:33;;;;;;;2.90;1.40;;;;;;;14.74;63.61;97582.34;5033751;28;20265;-71
2024/03/16 08:23:59;;;;;;;3.03;1.10;;;;;;;14.73;63.55;97591.25;5033007;28;20676;-69
2024/03/16 08:26:24;;;;;;;4.17;1.00;;;;;;;14.74;63.13;97591.06;5042524;28;20249;-69
2024/03/16 08:28:49;;;;;;;2.00;1.07;;;;;;;14.72;63.38;97589.59;5031262;28;21002;-71
2024/03/16 08:31:15;;;;;;;4.63;1.37;;;;;;;14.68;62.94;97591.72;5030783;28;20262;-71
2024/03/16 08:33:40;;;;;;;3.60;1.83;;;;;;;14.77;63.25;97595.16;5024576;28;20281;-70
2024/03/16 08:36:06;;;;;;;2.07;1.00;;;;;;;14.84;63.04;97596.16;5039984;28;20199;-69
2024/03/16 08:38:32;;;;;;;4.50;1.30;;;;;;;14.90;63.18;97592.81;5038298;28;20180;-70
2024/03/16 08:40:58;;;;;;;4.90;1.10;;;;;;;14.87;62.89;97595.78;5031083;28;20194;-72
2024/03/16 08:43:24;;;;;;;2.53;1.10;;;;;;;14.99;62.66;97595.44;5030824;28;20477;-70
2024/03/16 08:45:49;;;;;;;1.40;0.90;;;;;;;15.00;62.39;97600.53;5040962;28;20710;-70
2024/03/16 08:48:15;;;;;;;1.20;0.70;;;;;;;15.17;62.28;97601.28;5034049;28;20172;-70
2024/03/16 08:50:41;;;;;;;2.50;1.10;;;;;;;15.34;62.44;97596.75;5038917;28;20251;-68
2024/03/16 08:53:06;;;;;;;1.27;1.00;;;;;;;15.36;62.04;97604.53;5038865;28;20736;-70
2024/03/16 08:55:32;;;;;;;3.23;0.83;;;;;;;15.42;61.27;97601.16;5013513;28;20234;-70
2024/03/16 08:57:58;;;;;;;1.10;0.70;;;;;;;15.55;60.89;97613.81;5029664;28;20198;-71
2024/03/16 09:00:25;;;;;;;3.03;0.80;;;;;;;16.03;60.57;97607.59;5004169;28;20418;-70
2024/03/16 09:02:52;;;;;;;1.10;0.60;;;;;;;16.32;59.90;97614.78;5017874;28;20215;-71
2024/03/16 09:05:18;;;;;;;1.57;0.70;;;;;;;16.45;59.32;97621.28;5042583;28;20424;-71
2024/03/16 09:07:43;;;;;;;0.90;0.50;;;;;;;16.47;58.71;97628.03;5034304;28;20437;-71
2024/03/16 09:10:12;;;;;;;1.33;0.57;;;;;;;16.33;57.88;97632.28;5032832;28;20878;-71
2024/03/16 09:12:37;;;;;;;1.93;0.70;;;;;;;16.23;57.71;97631.72;5043834;28;20277;-71
2024/03/16 09:15:06;;;;;;;2.47;1.00;;;;;;;16.08;57.25;97634.28;5032351;28;20945;-70
2024/03/16 09:17:36;;;;;;;1.57;0.60;;;;;;;15.94;57.85;97633.25;5030012;28;20215;-70
2024/03/16 09:20:08;;;;;;;2.67;0.80;;;;;;;16.09;58.07;97641.22;5042165;28;20418;-70
2024/03/16 09:22:37;;;;;;;4.03;0.70;;;;;;;16.07;58.24;97636.13;5033222;28;20905;-69
2024/03/16 09:25:06;;;;;;;2.03;0.80;;;;;;;16.08;57.82;97645.72;5034790;28;20462;-70
2024/03/16 09:27:35;;;;;;;3.00;1.00;;;;;;;16.17;58.18;97640.34;5030159;28;20426;-71
2024/03/16 09:30:01;;;;;;;6.57;1.00;;;;;;;16.39;58.28;97639.50;5032517;28;20424;-70
2024/03/16 09:32:26;;;;;;;2.17;0.80;;;;;;;16.57;57.49;97636.50;5037588;28;20496;-70
2024/03/16 09:34:52;;;;;;;5.83;1.00;;;;;;;16.99;57.37;97647.56;5028912;28;20427;-70
2024/03/16 09:37:17;;;;;;;2.20;0.90;;;;;;;17.33;56.70;97648.81;5037162;28;20182;-71
2024/03/16 09:39:43;;;;;;;2.23;0.80;;;;;;;17.64;55.95;97649.56;5030338;28;20183;-71
2024/03/16 09:42:09;;;;;;;1.10;0.70;;;;;;;18.08;54.56;97653.13;5033393;28;20208;-71
2024/03/16 09:44:35;;;;;;;1.20;0.70;;;;;;;18.20;52.40;97654.25;5027611;28;20179;-70
2024/03/16 09:47:02;;;;;;;2.20;0.90;;;;;;;18.10;52.45;97653.75;5031715;28;20509;-69
2024/03/16 09:49:30;;;;;;;1.87;0.80;;;;;;;18.24;52.43;97655.53;5040817;28;20206;-70
2024/03/16 09:51:59;;;;;;;1.47;0.70;;;;;;;18.33;52.63;97663.34;5037581;28;20438;-72
2024/03/16 09:54:27;;;;;;;2.90;0.80;;;;;;;18.35;52.96;97656.00;5029470;28;20426;-71
2024/03/16 09:56:53;;;;;;;6.27;1.20;;;;;;;18.52;52.69;97654.72;5033044;28;20506;-70
2024/03/16 09:59:20;;;;;;;1.60;0.80;;;;;;;18.68;51.35;97652.78;5029293;28;21063;-70
2024/03/16 10:01:47;;;;;;;1.40;0.80;;;;;;;18.91;50.55;97657.00;5029188;28;20206;-70
2024/03/16 10:04:13;;;;;;;2.60;0.90;;;;;;;19.16;51.24;97657.41;5031582;28;20425;-71
2024/03/16 10:06:38;;;;;;;2.30;0.70;;;;;;;19.47;49.08;97658.75;5035051;28;20458;-71
2024/03/16 10:09:10;;;;;;;1.83;0.80;;;;;;;19.75;49.22;97658.69;5029183;28;20271;-70
2024/03/16 10:11:39;;;;;;;1.90;0.70;;;;;;;20.12;49.57;97660.22;5029654;28;20199;-69
2024/03/16 10:14:07;;;;;;;2.20;0.97;;;;;;;19.98;47.56;97654.88;5044335;28;20430;-70
2024/03/16 10:16:33;;;;;;;2.43;0.70;;;;;;;19.72;47.28;97672.38;5031525;28;20442;-70
2024/03/16 10:18:58;;;;;;;2.70;0.70;;;;;;;19.37;48.00;97669.78;5033658;28;20950;-69
2024/03/16 10:21:27;;;;;;;2.23;1.10;;;;;;;18.93;48.31;97668.28;5029040;28;21013;-70
2024/03/16 10:23:53;;;;;;;2.93;0.70;;;;;;;18.55;48.39;97675.56;5032634;28;20203;-70
2024/03/16 10:26:19;;;;;;;1.13;0.57;;;;;;;18.37;49.07;97680.53;5031504;28;20516;-68
2024/03/16 10:28:46;;;;;;;0.80;0.50;;;;;;;18.10;49.31;97685.56;5036161;28;20745;-68
2024/03/16 10:31:11;;;;;;;3.53;0.60;;;;;;;17.95;50.24;97683.75;5029310;28;20179;-71
2024/03/16 10:33:38;;;;;;;1.20;0.50;;;;;;;18.13;49.97;97697.63;5029722;28;20418;-70
2024/03/16 10:36:06;;;;;;;0.93;0.50;;;;;;;18.17;50.04;97683.78;5036753;28;20205;-72
2024/03/16 10:38:32;;;;;;;1.10;0.60;;;;;;;18.08;49.95;97687.59;5039241;28;20422;-71
2024/03/16 10:41:04;;;;;;;1.50;0.50;;;;;;;17.90;50.46;97699.41;5027851;28;20472;-71
2024/03/16 10:43:31;;;;;;;0.93;0.50;;;;;;;17.71;50.70;97708.75;5028183;28;20220;-70
2024/03/16 10:45:57;;;;;;;2.70;0.50;;;;;;;17.65;51.09;97710.34;5047502;28;20462;-71
2024/03/16 10:48:23;;;;;;;0.80;0.40;;;;;;;17.44;50.48;97708.47;5039661;28;20430;-71
2024/03/16 10:50:51;;;;;;;0.80;0.50;;;;;;;17.44;50.87;97708.47;5041307;28;21094;-71
2024/03/16 10:53:17;;;;;;;1.30;1.00;;;;;;;17.54;51.25;97712.66;5027942;28;20218;-71
2024/03/16 10:55:44;;;;;;;1.33;0.53;;;;;;;17.52;51.46;97715.47;5036856;28;20426;-70
2024/03/16 10:58:20;;;;;;;4.63;0.60;;;;;;;17.52;51.73;97715.47;5028610;28;20430;-71
2024/03/16 11:00:48;;;;;;;0.80;0.50;;;;;;;17.50;50.73;97712.19;5028762;28;20458;-71
2024/03/16 11:03:30;;;;;;;0.80;0.50;;;;;;;17.50;50.63;97712.19;5027716;28;20970;-70
2024/03/16 11:06:01;;;;;;;0.70;0.40;;;;;;;17.37;50.56;97718.13;5042033;28;20472;-72
2024/03/16 11:08:51;;;;;;;0.80;0.40;;;;;;;17.37;50.54;97714.69;5031206;28;20458;-70
2024/03/16 11:11:28;;;;;;;0.90;0.60;;;;;;;17.66;51.19;97713.81;5028623;28;20434;-71
2024/03/16 11:13:56;;;;;;;0.80;0.47;;;;;;;17.85;50.02;97709.75;5027833;28;20438;-72
2024/03/16 11:16:28;;;;;;;0.80;0.50;;;;;;;18.39;49.42;97713.81;5027373;28;20492;-71
2024/03/16 11:18:55;;;;;;;0.80;0.50;;;;;;;18.91;48.33;97696.84;5028489;28;20434;-70
2024/03/16 11:21:22;;;;;;;1.00;0.53;;;;;;;19.40;47.35;97703.94;5028125;28;20488;-69
2024/03/16 11:23:48;;;;;;;1.00;0.60;;;;;;;19.85;46.12;97694.69;5033456;28;20517;-71
2024/03/16 11:26:26;;;;;;;1.00;0.70;;;;;;;20.12;43.38;97689.47;5031098;28;20866;-70
2024/03/16 11:28:52;;;;;;;1.83;0.90;;;;;;;20.45;43.01;97696.69;5030655;28;21150;-72
2024/03/16 11:31:37;;;;;;;0.90;0.60;;;;;;;20.72;42.61;97686.88;5043021;28;20448;-71